Time;durP1;ratioP1;P1;durP2;ratioP2;P2;SDS_P1;SDS_P2;PMS_P1;PMS_P2;Temp;Humidity;BMP_temperature;BMP_pressure;BME280_temperature;BME280_humidity;BME280_pressure;Samples;Min_cycle;Max_cycle;Signal;HPM_P1;HPM_P2
2021/12/18 00:02:11;;;;;;;18.43;16.50;;;4.60;1.00;6.40;102660.00;;;;5015499;28;20453;-76
2021/12/18 00:04:41;;;;;;;19.50;17.50;;;4.70;1.00;6.20;102670.00;;;;5005622;28;20451;-75
2021/12/18 00:07:10;;;;;;;17.57;15.87;;;4.60;1.00;6.40;102667.00;;;;5010976;28;20830;-75
2021/12/18 00:09:40;;;;;;;17.03;15.47;;;4.70;1.00;6.40;102668.00;;;;5008231;28;20462;-74
2021/12/18 00:12:09;;;;;;;18.17;16.27;;;4.70;1.00;6.40;102654.00;;;;5013631;28;20454;-76
2021/12/18 00:14:38;;;;;;;17.57;15.87;;;4.70;1.00;6.40;102664.00;;;;5012920;28;20774;-75
2021/12/18 00:17:06;;;;;;;16.33;14.73;;;4.70;1.00;6.30;102675.00;;;;5007876;28;20456;-74
2021/12/18 00:19:34;;;;;;;16.90;15.30;;;4.80;1.00;6.30;102673.00;;;;5013236;28;20470;-75
2021/12/18 00:22:05;;;;;;;16.27;14.67;;;4.80;1.00;6.30;102661.00;;;;5013564;28;20465;-76
2021/12/18 00:24:34;;;;;;;17.97;16.07;;;4.80;1.00;6.30;102644.00;;;;5011285;28;20461;-74
2021/12/18 00:27:02;;;;;;;16.60;15.00;;;4.80;1.00;6.30;102658.00;;;;5031101;28;20453;-75
2021/12/18 00:29:30;;;;;;;18.20;16.30;;;4.80;1.00;6.30;102661.00;;;;5037170;28;20458;-74
2021/12/18 00:31:59;;;;;;;16.37;14.87;;;4.80;1.00;6.30;102673.00;;;;5038731;28;20468;-74
2021/12/18 00:34:27;;;;;;;16.10;14.47;;;4.70;1.00;6.30;102665.00;;;;5038104;28;20436;-73
2021/12/18 00:36:55;;;;;;;18.00;16.20;;;4.70;1.00;6.40;102667.00;;;;5019954;28;20470;-75
2021/12/18 00:39:27;;;;;;;19.53;15.30;;;4.70;1.00;6.30;102670.00;;;;5006854;28;20479;-75
2021/12/18 00:42:09;;;;;;;20.03;16.00;;;4.70;1.00;6.40;102670.00;;;;5011522;28;20446;-75
2021/12/18 00:44:37;;;;;;;17.23;15.20;;;4.60;1.00;6.40;102667.00;;;;5014109;28;20455;-75
2021/12/18 00:47:06;;;;;;;16.63;15.03;;;4.60;1.00;6.40;102677.00;;;;5012846;28;20450;-75
2021/12/18 00:49:35;;;;;;;16.50;15.00;;;4.70;1.00;6.40;102662.00;;;;5010228;28;20811;-75
2021/12/18 00:52:04;;;;;;;16.10;14.57;;;4.70;1.00;6.50;102660.00;;;;5007469;28;20481;-76
2021/12/18 00:54:34;;;;;;;16.03;14.33;;;4.70;1.00;6.50;102653.00;;;;5012328;28;20462;-75
2021/12/18 00:57:03;;;;;;;17.03;15.37;;;4.60;1.00;6.40;102662.00;;;;5003589;28;20454;-74
2021/12/18 00:59:33;;;;;;;18.27;16.33;;;4.60;1.00;6.40;102671.00;;;;5009714;28;20469;-74
2021/12/18 01:02:01;;;;;;;17.50;15.80;;;4.60;1.00;6.30;102657.00;;;;5012137;28;20465;-74
2021/12/18 01:04:29;;;;;;;20.03;17.13;;;4.60;1.00;6.30;102664.00;;;;5006348;28;20466;-74
2021/12/18 01:06:57;;;;;;;18.30;16.40;;;4.60;1.00;6.30;102657.00;;;;5014103;28;20459;-73
2021/12/18 01:09:40;;;;;;;18.00;16.10;;;4.50;1.00;6.30;102643.00;;;;5028137;28;20476;-73
2021/12/18 01:12:11;;;;;;;17.30;15.33;;;4.40;1.00;6.20;102665.00;;;;5012246;28;20454;-75
2021/12/18 01:14:56;;;;;;;18.87;16.97;;;4.40;1.00;6.20;102663.00;;;;5013491;28;20474;-74
2021/12/18 01:22:57;;;;;;;21.23;18.93;;;4.40;1.00;6.10;102668.00;;;;5013925;28;20466;-75
2021/12/18 01:25:25;;;;;;;20.97;18.87;;;4.30;1.00;6.10;102669.00;;;;5010825;28;20474;-74
2021/12/18 01:27:55;;;;;;;21.13;19.00;;;4.30;1.00;6.00;102678.00;;;;5010154;28;20453;-74
2021/12/18 01:30:23;;;;;;;21.97;18.73;;;4.40;1.00;6.00;102673.00;;;;5010569;28;20461;-75
2021/12/18 01:32:51;;;;;;;20.87;18.70;;;4.40;1.00;6.00;102675.00;;;;5010697;28;20457;-75
2021/12/18 01:35:20;;;;;;;16.97;15.27;;;4.50;1.00;6.00;102679.00;;;;5009311;28;20477;-75
2021/12/18 01:37:49;;;;;;;21.13;18.87;;;4.50;1.00;6.00;102671.00;;;;5011198;28;20469;-75
2021/12/18 01:40:18;;;;;;;21.13;18.93;;;4.50;1.00;6.00;102684.00;;;;5007758;28;21025;-74
2021/12/18 01:46:03;;;;;;;21.77;19.40;;;4.60;1.00;6.10;102683.00;;;;5006610;28;20478;-74
2021/12/18 01:51:24;;;;;;;21.17;18.97;;;4.70;1.00;6.10;102682.00;;;;5007716;28;20461;-74
2021/12/18 01:53:55;;;;;;;21.90;19.50;;;4.70;1.00;6.20;102678.00;;;;5013901;28;20430;-74
2021/12/18 01:56:27;;;;;;;21.27;19.00;;;4.70;1.00;6.20;102688.00;;;;5028784;28;20489;-74
2021/12/18 01:58:57;;;;;;;21.73;19.50;;;4.80;1.00;6.20;102700.00;;;;5009539;28;20511;-73
2021/12/18 02:01:28;;;;;;;21.63;19.33;;;4.80;1.00;6.20;102664.00;;;;5006184;28;20548;-74
2021/12/18 02:03:56;;;;;;;23.17;20.53;;;4.90;1.00;6.20;102695.00;;;;5004245;28;20881;-73
2021/12/18 02:06:26;;;;;;;24.20;21.20;;;4.80;1.00;6.20;102671.00;;;;5009633;28;20508;-74
2021/12/18 02:08:54;;;;;;;23.10;19.03;;;4.80;1.00;6.30;102682.00;;;;5011764;28;20532;-75
2021/12/18 02:11:30;;;;;;;23.47;19.90;;;4.80;1.00;6.20;102682.00;;;;5010830;28;20959;-76
2021/12/18 02:14:34;;;;;;;22.30;20.00;;;4.80;1.00;6.20;102668.00;;;;5008422;28;20808;-74
2021/12/18 02:19:56;;;;;;;23.30;20.90;;;4.80;1.00;6.20;102686.00;;;;5006425;28;20527;-74
2021/12/18 02:22:27;;;;;;;23.60;21.07;;;4.70;1.00;6.20;102684.00;;;;5006305;28;21234;-74
2021/12/18 02:24:55;;;;;;;22.40;20.00;;;4.70;1.00;6.20;102674.00;;;;5003982;28;20474;-74
2021/12/18 02:27:23;;;;;;;23.70;21.00;;;4.70;1.00;6.10;102676.00;;;;5009118;28;20557;-74
2021/12/18 02:29:52;;;;;;;24.20;21.60;;;4.80;1.00;6.10;102678.00;;;;5015584;28;20460;-73
2021/12/18 02:32:22;;;;;;;25.53;21.67;;;4.70;1.00;6.10;102681.00;;;;5011408;28;20489;-75
2021/12/18 02:34:57;;;;;;;24.83;21.00;;;4.70;1.00;6.10;102642.00;;;;5012308;28;20481;-74
2021/12/18 02:37:31;;;;;;;29.23;22.47;;;4.60;1.00;6.10;102673.00;;;;5010547;28;20964;-75
2021/12/18 02:42:42;;;;;;;23.80;21.30;;;4.60;1.00;6.10;102681.00;;;;5003775;28;20481;-75
2021/12/18 02:45:12;;;;;;;23.90;21.40;;;4.60;1.00;6.10;102679.00;;;;5009687;28;20462;-75
2021/12/18 02:47:40;;;;;;;22.60;20.30;;;4.70;1.00;6.20;102671.00;;;;5011176;28;20465;-74
2021/12/18 02:50:10;;;;;;;21.30;19.10;;;4.80;1.00;6.30;102669.00;;;;5012338;28;20495;-75
2021/12/18 02:52:39;;;;;;;22.30;19.87;;;4.80;1.00;6.40;102694.00;;;;5020984;28;20541;-75
2021/12/18 02:55:08;;;;;;;24.63;21.17;;;4.90;1.00;6.50;102680.00;;;;5014092;28;20488;-74
2021/12/18 02:57:36;;;;;;;23.10;20.53;;;4.90;1.00;6.60;102670.00;;;;5012914;28;20469;-75
2021/12/18 03:00:07;;;;;;;26.17;21.10;;;4.90;1.00;6.60;102683.00;;;;5009208;28;20474;-74
2021/12/18 03:02:40;;;;;;;25.33;22.53;;;4.90;1.00;6.50;102689.00;;;;5012485;28;20536;-75
2021/12/18 03:05:19;;;;;;;24.87;21.77;;;4.80;1.00;6.40;102693.00;;;;5022490;28;20473;-76
2021/12/18 03:07:54;;;;;;;25.70;22.97;;;4.80;1.00;6.30;102613.00;;;;5018477;28;20476;-75
2021/12/18 03:24:22;;;;;;;24.40;21.80;;;4.80;1.00;6.30;102697.00;;;;5011617;28;20492;-75
2021/12/18 03:26:50;;;;;;;25.80;22.77;;;4.80;1.00;6.40;102700.00;;;;5015192;28;20501;-75
2021/12/18 03:29:18;;;;;;;25.47;21.63;;;4.80;1.00;6.40;102700.00;;;;5009517;28;20454;-75
2021/12/18 03:31:47;;;;;;;26.77;23.10;;;4.80;1.00;6.40;102688.00;;;;5014732;28;20465;-75
2021/12/18 03:34:15;;;;;;;25.30;22.60;;;4.80;1.00;6.50;102695.00;;;;5010194;28;20454;-76
2021/12/18 03:36:44;;;;;;;25.90;21.00;;;4.80;1.00;6.50;102684.00;;;;5018462;28;20533;-75
2021/12/18 03:39:15;;;;;;;22.73;20.20;;;4.90;1.00;6.60;102689.00;;;;5037189;28;20486;-74
2021/12/18 03:41:44;;;;;;;23.47;19.43;;;4.90;1.00;6.70;102692.00;;;;5041434;28;20549;-74
2021/12/18 03:44:12;;;;;;;22.47;19.43;;;4.80;1.00;6.70;102698.00;;;;5038400;28;20466;-75
2021/12/18 03:46:41;;;;;;;25.33;21.13;;;4.90;1.00;6.80;102690.00;;;;5022159;28;20492;-75
2021/12/18 03:49:09;;;;;;;22.23;19.93;;;4.80;1.00;6.80;102686.00;;;;5014497;28;20484;-75
2021/12/18 03:51:37;;;;;;;21.83;19.57;;;4.90;1.00;6.80;102695.00;;;;5013801;28;20828;-74
2021/12/18 03:54:06;;;;;;;21.13;18.90;;;4.90;1.00;6.80;102678.00;;;;5009383;28;20947;-75
2021/12/18 03:56:36;;;;;;;23.60;19.60;;;4.90;1.00;6.80;102682.00;;;;5010370;28;20485;-75
2021/12/18 03:59:04;;;;;;;22.00;19.73;;;4.90;1.00;6.80;102692.00;;;;5006725;28;20454;-75
2021/12/18 04:01:32;;;;;;;22.07;19.20;;;4.90;1.00;6.70;102682.00;;;;5011099;28;20497;-75
2021/12/18 04:04:01;;;;;;;23.07;20.67;;;4.80;1.00;6.80;102644.00;;;;5004855;28;20529;-75
2021/12/18 04:06:31;;;;;;;22.43;20.13;;;4.80;1.00;6.80;102679.00;;;;5010121;28;21006;-74
2021/12/18 04:09:00;;;;;;;23.53;19.27;;;4.70;1.00;6.90;102639.00;;;;5007283;28;20460;-75
2021/12/18 04:11:28;;;;;;;22.07;19.70;;;4.70;1.00;6.90;102681.00;;;;5013292;28;20485;-75
2021/12/18 04:13:58;;;;;;;21.97;19.60;;;4.70;1.00;6.90;102679.00;;;;5009965;28;20465;-76
2021/12/18 04:16:28;;;;;;;22.73;20.33;;;4.70;1.00;6.90;102676.00;;;;5010646;28;20532;-75
2021/12/18 04:18:56;;;;;;;21.00;18.80;;;4.80;1.00;6.90;102667.00;;;;5014377;28;20820;-74
2021/12/18 04:21:24;;;;;;;23.60;21.10;;;4.90;1.00;6.90;102678.00;;;;5014564;28;20473;-74
2021/12/18 04:23:53;;;;;;;23.70;21.20;;;4.80;1.00;6.90;102678.00;;;;5011345;28;20465;-75
2021/12/18 04:26:21;;;;;;;22.50;20.27;;;4.80;1.00;7.00;102679.00;;;;5016087;28;21023;-75
2021/12/18 04:28:50;;;;;;;22.17;19.80;;;4.90;1.00;7.10;102695.00;;;;5016955;28;20465;-74
2021/12/18 04:31:20;;;;;;;23.60;21.10;;;5.00;1.00;7.10;102679.00;;;;5012119;28;20508;-75
2021/12/18 04:33:48;;;;;;;24.37;20.53;;;5.00;1.00;7.20;102677.00;;;;5012796;28;21116;-75
2021/12/18 04:36:16;;;;;;;23.30;20.83;;;5.00;1.00;7.20;102689.00;;;;5011500;28;20477;-75
2021/12/18 04:38:45;;;;;;;23.40;20.97;;;5.10;1.00;7.20;102684.00;;;;5012539;28;20962;-75
2021/12/18 04:41:20;;;;;;;24.20;21.60;;;5.10;1.00;7.20;102672.00;;;;5007366;28;20897;-74
2021/12/18 04:43:49;;;;;;;23.87;21.27;;;5.20;1.00;7.30;102658.00;;;;5005534;28;20453;-76
2021/12/18 04:46:19;;;;;;;23.37;20.77;;;5.20;1.00;7.30;102668.00;;;;5013310;28;20481;-74
2021/12/18 04:48:47;;;;;;;22.90;20.50;;;5.20;1.00;7.30;102681.00;;;;5012364;28;20465;-74
2021/12/18 04:51:15;;;;;;;26.50;20.37;;;5.20;1.00;7.30;102695.00;;;;5012548;28;20461;-75
2021/12/18 04:53:43;;;;;;;22.67;20.53;;;5.30;1.00;7.30;102691.00;;;;5021361;28;20461;-75
2021/12/18 04:56:12;;;;;;;24.00;21.47;;;5.20;1.00;7.40;102690.00;;;;5008011;28;20853;-75
2021/12/18 04:58:40;;;;;;;24.83;22.10;;;5.30;1.00;7.40;102638.00;;;;5025630;28;20462;-75
2021/12/18 05:01:08;;;;;;;30.23;23.87;;;5.30;1.00;7.40;102663.00;;;;5000247;28;20475;-75
2021/12/18 05:03:40;;;;;;;27.23;23.23;;;5.30;1.00;7.40;102686.00;;;;5009071;28;20461;-75
2021/12/18 05:06:08;;;;;;;27.20;22.50;;;5.40;1.00;7.40;102678.00;;;;5012344;28;20501;-75
2021/12/18 05:08:37;;;;;;;24.43;21.67;;;5.40;1.00;7.40;102681.00;;;;5009604;28;20466;-75
2021/12/18 05:11:05;;;;;;;23.13;20.83;;;5.40;1.00;7.40;102691.00;;;;5010556;28;20460;-74
2021/12/18 05:13:33;;;;;;;23.10;20.87;;;5.30;1.00;7.40;102684.00;;;;5008346;28;20469;-74
2021/12/18 05:16:01;;;;;;;23.50;21.17;;;5.30;1.00;7.40;102695.00;;;;5011100;28;20982;-74
2021/12/18 05:18:30;;;;;;;22.27;19.93;;;5.30;1.00;7.40;102691.00;;;;5012369;28;20466;-75
2021/12/18 05:21:00;;;;;;;24.60;21.83;;;5.30;1.00;7.40;102688.00;;;;5020566;28;20462;-75
2021/12/18 05:23:28;;;;;;;23.63;21.10;;;5.30;1.00;7.40;102684.00;;;;5032364;28;20462;-74
2021/12/18 05:25:56;;;;;;;23.40;21.13;;;5.20;1.00;7.40;102687.00;;;;5029960;28;20508;-74
2021/12/18 05:28:24;;;;;;;25.70;23.10;;;5.20;1.00;7.40;102684.00;;;;5032029;28;20446;-75
2021/12/18 05:30:52;;;;;;;27.00;24.20;;;5.20;1.00;7.40;102681.00;;;;5026108;28;20457;-75
2021/12/18 05:33:21;;;;;;;25.63;23.23;;;5.20;1.00;7.40;102671.00;;;;5035536;28;20468;-74
2021/12/18 05:35:49;;;;;;;25.07;22.47;;;5.10;1.00;7.30;102693.00;;;;5021285;28;20987;-75
2021/12/18 05:38:19;;;;;;;25.47;22.87;;;5.20;1.00;7.30;102672.00;;;;5018958;28;20479;-75
2021/12/18 05:40:47;;;;;;;24.30;22.10;;;5.10;1.00;7.40;102687.00;;;;5008323;28;20454;-75
2021/12/18 05:43:15;;;;;;;25.00;22.47;;;5.10;1.00;7.40;102687.00;;;;5012116;28;20468;-74
2021/12/18 05:45:44;;;;;;;26.33;23.80;;;5.10;1.00;7.40;102690.00;;;;5011482;28;20481;-74
2021/12/18 05:48:12;;;;;;;26.10;23.30;;;5.20;1.00;7.30;102690.00;;;;5020561;28;20450;-75
2021/12/18 05:50:45;;;;;;;24.63;22.20;;;5.10;1.00;7.30;102687.00;;;;5001189;28;20463;-74
2021/12/18 05:53:14;;;;;;;26.30;23.40;;;5.10;1.00;7.30;102679.00;;;;5020208;28;20556;-75
2021/12/18 05:55:43;;;;;;;24.80;22.30;;;5.00;1.00;7.30;102668.00;;;;5022807;28;20478;-73
2021/12/18 05:58:12;;;;;;;24.47;21.93;;;5.00;1.00;7.40;102689.00;;;;5024990;28;20477;-74
2021/12/18 06:00:40;;;;;;;24.20;20.03;;;5.00;1.00;7.30;102675.00;;;;5020987;28;20476;-75
2021/12/18 06:03:08;;;;;;;23.00;20.70;;;5.10;1.00;7.30;102684.00;;;;5011403;28;20509;-75
2021/12/18 06:05:37;;;;;;;23.30;20.43;;;5.10;1.00;7.20;102682.00;;;;5011635;28;20470;-75
2021/12/18 06:08:10;;;;;;;25.07;21.60;;;5.10;1.00;7.20;102685.00;;;;5013510;28;20454;-75
2021/12/18 06:10:39;;;;;;;26.07;22.27;;;5.10;1.00;7.20;102686.00;;;;5026510;28;20481;-73
2021/12/18 06:13:09;;;;;;;22.47;20.10;;;5.10;1.00;7.10;102691.00;;;;5029091;28;20481;-72
2021/12/18 06:15:38;;;;;;;23.37;20.87;;;5.10;1.00;7.10;102701.00;;;;5026057;28;20900;-74
2021/12/18 06:18:06;;;;;;;22.97;20.57;;;5.10;1.00;7.10;102686.00;;;;5012259;28;20822;-73
2021/12/18 06:20:34;;;;;;;23.93;21.33;;;5.10;1.00;7.10;102697.00;;;;5002961;28;20443;-74
2021/12/18 06:23:03;;;;;;;23.87;21.47;;;5.10;1.00;7.20;102694.00;;;;5005552;28;20478;-74
2021/12/18 06:25:31;;;;;;;24.23;21.83;;;5.20;1.00;7.30;102692.00;;;;5011602;28;20990;-74
2021/12/18 06:27:59;;;;;;;23.33;20.93;;;5.20;1.00;7.30;102684.00;;;;5014111;28;20457;-74
2021/12/18 06:30:29;;;;;;;23.73;21.40;;;5.20;1.00;7.40;102693.00;;;;5009954;28;20449;-74
2021/12/18 06:32:57;;;;;;;22.33;20.10;;;5.20;1.00;7.40;102689.00;;;;5011029;28;20496;-74
2021/12/18 06:35:26;;;;;;;24.50;19.70;;;5.20;1.00;7.40;102697.00;;;;5009524;28;20478;-72
2021/12/18 06:37:54;;;;;;;24.73;21.83;;;5.20;1.00;7.40;102698.00;;;;5016903;28;20449;-74
2021/12/18 06:40:23;;;;;;;24.17;21.60;;;5.20;1.00;7.40;102704.00;;;;5015550;28;20464;-74
2021/12/18 06:42:52;;;;;;;23.30;21.20;;;5.20;1.00;7.40;102717.00;;;;5008618;28;20474;-74
2021/12/18 06:45:24;;;;;;;23.40;21.10;;;5.20;1.00;7.40;102702.00;;;;5012689;28;20481;-75
2021/12/18 06:47:55;;;;;;;26.53;23.97;;;5.20;1.00;7.40;102706.00;;;;5013313;28;20454;-74
2021/12/18 06:50:23;;;;;;;35.20;31.90;;;5.20;1.00;7.40;102708.00;;;;5013464;28;20962;-73
2021/12/18 06:52:52;;;;;;;37.73;34.30;;;5.10;1.00;7.30;102703.00;;;;5014979;28;20457;-74
2021/12/18 06:55:21;;;;;;;38.50;34.90;;;5.10;1.00;7.30;102712.00;;;;5012777;28;20486;-73
2021/12/18 06:57:49;;;;;;;34.70;31.40;;;5.10;1.00;7.30;102707.00;;;;5027236;28;20426;-74
2021/12/18 07:00:20;;;;;;;29.67;26.90;;;5.00;1.00;7.20;102692.00;;;;5039115;28;20489;-74
2021/12/18 07:02:48;;;;;;;30.33;27.43;;;5.00;1.00;7.20;102713.00;;;;5036021;28;20484;-75
2021/12/18 07:05:19;;;;;;;26.07;23.60;;;5.00;1.00;7.20;102716.00;;;;5033567;28;20497;-75
2021/12/18 07:07:50;;;;;;;27.57;24.87;;;5.00;1.00;7.20;102675.00;;;;5030338;28;20453;-74
2021/12/18 07:10:19;;;;;;;24.47;22.17;;;5.10;1.00;7.30;102719.00;;;;5030186;28;20454;-75
2021/12/18 07:12:48;;;;;;;22.57;20.47;;;5.10;1.00;7.20;102709.00;;;;5017953;28;20462;-75
2021/12/18 07:15:16;;;;;;;21.50;19.33;;;5.10;1.00;7.30;102703.00;;;;5011005;28;20841;-74
2021/12/18 07:17:44;;;;;;;22.77;20.33;;;5.10;1.00;7.20;102718.00;;;;5014408;28;20458;-75
2021/12/18 07:20:14;;;;;;;21.20;19.10;;;5.00;1.00;7.20;102717.00;;;;5012732;28;20457;-74
2021/12/18 07:22:44;;;;;;;20.40;18.60;;;5.00;1.00;7.10;102697.00;;;;5007004;28;20493;-74
2021/12/18 07:25:12;;;;;;;21.40;19.23;;;4.90;1.00;7.00;102652.00;;;;5009647;28;20474;-74
2021/12/18 07:27:41;;;;;;;20.53;18.33;;;4.90;1.00;7.10;102719.00;;;;5010830;28;20453;-74
2021/12/18 07:30:12;;;;;;;21.67;19.60;;;5.00;1.00;7.10;102721.00;;;;5011764;28;20461;-74
2021/12/18 07:32:40;;;;;;;21.33;19.20;;;4.90;1.00;7.20;102705.00;;;;5013348;28;20472;-75
2021/12/18 07:35:10;;;;;;;20.63;18.70;;;5.00;1.00;7.20;102714.00;;;;5011198;28;20489;-74
2021/12/18 07:37:39;;;;;;;18.10;16.43;;;4.90;1.00;7.10;102715.00;;;;5009860;28;20545;-74
2021/12/18 07:40:11;;;;;;;19.47;17.43;;;5.00;1.00;7.20;102724.00;;;;5013335;28;20477;-74
2021/12/18 07:42:40;;;;;;;17.10;15.40;;;5.00;1.00;7.20;102703.00;;;;5013699;28;20488;-75
2021/12/18 07:45:11;;;;;;;18.57;16.87;;;5.00;1.00;7.20;102698.00;;;;5011905;28;20509;-75
2021/12/18 07:47:39;;;;;;;18.50;16.80;;;5.00;1.00;7.30;102705.00;;;;5007427;28;20463;-74
2021/12/18 07:50:17;;;;;;;17.70;16.00;;;5.00;1.00;7.30;102669.00;;;;5012145;28;20488;-75
2021/12/18 07:52:46;;;;;;;17.90;16.20;;;5.10;1.00;7.20;102717.00;;;;5012696;28;20449;-74
2021/12/18 07:55:17;;;;;;;18.10;16.40;;;5.10;1.00;7.30;102718.00;;;;5008547;28;20572;-74
2021/12/18 07:57:46;;;;;;;19.20;17.20;;;5.10;1.00;7.30;102722.00;;;;5007739;28;20830;-75
2021/12/18 08:00:16;;;;;;;20.67;18.57;;;5.10;1.00;7.30;102735.00;;;;5006249;28;20498;-75
2021/12/18 08:02:45;;;;;;;19.90;17.70;;;5.10;1.00;7.30;102724.00;;;;5011175;28;20477;-75
2021/12/18 08:05:15;;;;;;;20.13;17.30;;;5.10;1.00;7.30;102728.00;;;;5012587;28;20517;-74
2021/12/18 08:07:43;;;;;;;19.10;17.30;;;5.20;1.00;7.30;102728.00;;;;5011832;28;20979;-75
2021/12/18 08:10:12;;;;;;;19.23;17.23;;;5.10;1.00;7.40;102718.00;;;;5014712;28;20527;-74
2021/12/18 08:12:42;;;;;;;19.07;17.27;;;5.20;1.00;7.40;102712.00;;;;5013319;28;20834;-75
2021/12/18 08:15:11;;;;;;;18.17;16.37;;;5.20;1.00;7.40;102726.00;;;;5006644;28;21018;-74
2021/12/18 08:17:40;;;;;;;19.80;17.70;;;5.30;1.00;7.40;102734.00;;;;5010859;28;20465;-75
2021/12/18 08:20:10;;;;;;;19.67;17.63;;;5.30;1.00;7.40;102671.00;;;;5012570;28;20458;-76
2021/12/18 08:22:38;;;;;;;19.70;17.60;;;5.30;1.00;7.40;102717.00;;;;5006647;28;20469;-74
2021/12/18 08:25:08;;;;;;;20.20;18.30;;;5.30;1.00;7.50;102718.00;;;;5017656;28;20484;-75
2021/12/18 08:27:37;;;;;;;19.80;17.30;;;5.30;1.00;7.50;102720.00;;;;5035323;28;20501;-76
2021/12/18 08:30:09;;;;;;;20.37;18.20;;;5.30;1.00;7.60;102718.00;;;;5020413;28;20450;-74
2021/12/18 08:32:39;;;;;;;19.70;17.80;;;5.40;1.00;7.60;102692.00;;;;5018971;28;20449;-74
2021/12/18 08:35:09;;;;;;;19.20;17.20;;;5.40;1.00;7.70;102721.00;;;;5014986;28;20846;-74
2021/12/18 08:37:38;;;;;;;19.13;17.33;;;5.50;1.00;7.70;102723.00;;;;5011462;28;20458;-76
2021/12/18 08:40:08;;;;;;;18.67;16.77;;;5.50;1.00;7.70;102726.00;;;;5012786;28;20458;-76
2021/12/18 08:42:36;;;;;;;21.17;18.97;;;5.50;1.00;7.70;102719.00;;;;5012183;28;20504;-75
2021/12/18 08:45:08;;;;;;;20.43;18.13;;;5.50;1.00;7.80;102660.00;;;;5012206;28;20478;-75
2021/12/18 08:47:36;;;;;;;20.00;18.00;;;5.60;1.00;7.80;102735.00;;;;5016859;28;20454;-75
2021/12/18 08:50:09;;;;;;;19.77;17.90;;;5.70;1.00;7.90;102718.00;;;;5009357;28;20461;-76
2021/12/18 08:52:38;;;;;;;19.10;17.20;;;5.70;1.00;8.00;102710.00;;;;5014879;28;20457;-75
2021/12/18 08:55:07;;;;;;;19.80;17.87;;;5.70;1.00;8.00;102714.00;;;;5011457;28;20592;-75
2021/12/18 08:57:36;;;;;;;20.30;18.30;;;5.70;1.00;7.90;102726.00;;;;5011868;28;20454;-75
2021/12/18 09:00:09;;;;;;;19.07;17.17;;;5.70;1.00;8.00;102721.00;;;;5012336;28;20460;-75
2021/12/18 09:02:37;;;;;;;18.93;17.13;;;5.80;1.00;8.10;102720.00;;;;5011537;28;20457;-76
2021/12/18 09:05:08;;;;;;;18.37;16.47;;;5.90;1.00;8.10;102721.00;;;;5010161;28;20485;-74
2021/12/18 09:07:36;;;;;;;18.70;16.80;;;5.90;1.00;8.20;102710.00;;;;5010652;28;20454;-76
2021/12/18 09:10:06;;;;;;;20.37;18.47;;;5.90;1.00;8.20;102722.00;;;;5018679;28;20505;-75
2021/12/18 09:12:35;;;;;;;21.73;19.63;;;6.00;1.00;8.30;102729.00;;;;5044998;28;20445;-76
2021/12/18 09:15:06;;;;;;;21.80;19.40;;;6.00;1.00;8.40;102725.00;;;;5020480;28;20836;-76
2021/12/18 09:17:34;;;;;;;20.77;18.77;;;6.00;1.00;8.40;102720.00;;;;5020712;28;20462;-75
2021/12/18 09:20:04;;;;;;;20.90;18.90;;;6.10;1.00;8.50;102715.00;;;;5018388;28;20449;-75
2021/12/18 09:22:32;;;;;;;22.17;20.07;;;6.10;1.00;8.50;102730.00;;;;5022861;28;20826;-76
2021/12/18 09:25:03;;;;;;;20.60;18.53;;;6.20;1.00;8.50;102719.00;;;;5021463;28;20481;-75
2021/12/18 09:27:31;;;;;;;20.70;18.70;;;6.20;1.00;8.50;102729.00;;;;5033301;28;20457;-77
2021/12/18 09:29:59;;;;;;;17.93;16.30;;;6.20;1.00;8.60;102699.00;;;;5035506;28;20457;-74
2021/12/18 09:32:30;;;;;;;22.50;20.07;;;6.20;1.00;8.60;102727.00;;;;5033682;28;20439;-74
2021/12/18 09:34:58;;;;;;;21.10;19.00;;;6.30;1.00;8.50;102724.00;;;;5022868;28;20493;-75
2021/12/18 09:37:26;;;;;;;19.97;17.87;;;6.20;1.00;8.40;102716.00;;;;5012491;28;20468;-76
2021/12/18 09:39:55;;;;;;;18.10;16.40;;;6.20;1.00;8.40;102726.00;;;;5009759;28;20460;-76
2021/12/18 09:42:24;;;;;;;21.10;18.67;;;6.20;1.00;8.40;102685.00;;;;5011498;28;20537;-77
2021/12/18 09:44:53;;;;;;;19.80;17.13;;;6.30;1.00;8.50;102688.00;;;;5010820;28;20481;-76
2021/12/18 09:47:22;;;;;;;22.23;18.70;;;6.40;1.00;8.50;102694.00;;;;5000528;28;20454;-76
2021/12/18 09:49:52;;;;;;;21.20;19.13;;;6.40;1.00;8.60;102714.00;;;;5003696;28;20465;-76
2021/12/18 09:52:20;;;;;;;19.03;17.13;;;6.40;1.00;8.60;102685.00;;;;5006816;28;20458;-75
2021/12/18 09:54:48;;;;;;;18.90;16.97;;;6.50;1.00;8.50;102708.00;;;;5005235;28;20966;-75
2021/12/18 09:57:16;;;;;;;17.97;16.17;;;6.50;1.00;8.50;102710.00;;;;5011982;28;20981;-76
2021/12/18 09:59:45;;;;;;;19.03;17.13;;;6.50;1.00;8.50;102711.00;;;;5005897;28;20462;-75
2021/12/18 10:02:13;;;;;;;20.13;18.20;;;6.50;1.00;8.60;102701.00;;;;5008311;28;20454;-76
2021/12/18 10:04:41;;;;;;;20.97;18.80;;;6.50;1.00;8.50;102699.00;;;;5004581;28;20465;-77
2021/12/18 10:07:21;;;;;;;20.67;18.40;;;6.50;1.00;8.50;102695.00;;;;5007788;28;20461;-76
2021/12/18 10:09:56;;;;;;;23.47;21.10;;;6.60;1.00;8.50;102689.00;;;;5007339;28;20458;-76
2021/12/18 10:12:27;;;;;;;22.67;20.27;;;6.50;1.00;8.50;102692.00;;;;5012569;28;20461;-76
2021/12/18 10:14:58;;;;;;;21.63;18.93;;;6.50;1.00;8.50;102694.00;;;;5008086;28;20495;-76
2021/12/18 10:17:29;;;;;;;20.70;18.60;;;6.50;1.00;8.40;102664.00;;;;5013873;28;20466;-76
2021/12/18 10:20:17;;;;;;;22.20;19.23;;;6.50;1.00;8.50;102707.00;;;;5001321;28;20453;-75
2021/12/18 10:22:51;;;;;;;23.97;21.50;;;6.40;1.00;8.50;102666.00;;;;5009629;28;20576;-75
2021/12/18 10:25:22;;;;;;;21.40;19.13;;;6.50;1.00;8.50;102698.00;;;;5009825;28;20482;-74
2021/12/18 10:28:03;;;;;;;22.40;20.13;;;6.50;1.00;8.40;102686.00;;;;5013068;28;20568;-75
2021/12/18 10:30:32;;;;;;;23.13;20.63;;;6.50;1.00;8.40;102649.00;;;;5009654;28;20450;-74
2021/12/18 10:33:05;;;;;;;21.40;19.20;;;6.60;1.00;8.60;102678.00;;;;5007381;28;20461;-76
2021/12/18 10:35:43;;;;;;;22.70;20.30;;;6.60;1.00;8.80;102679.00;;;;5008225;28;20872;-75
2021/12/18 10:38:39;;;;;;;23.57;20.40;;;6.60;1.00;8.80;102671.00;;;;5008757;28;20968;-73
2021/12/18 10:41:28;;;;;;;24.30;21.90;;;6.80;1.00;9.00;102670.00;;;;5010080;28;20449;-74
2021/12/18 10:44:01;;;;;;;20.97;18.87;;;7.00;1.00;9.20;102664.00;;;;5012160;28;20476;-76
2021/12/18 10:46:32;;;;;;;20.73;18.50;;;7.40;1.00;9.30;102659.00;;;;5012794;28;20990;-74
2021/12/18 10:49:03;;;;;;;19.70;17.00;;;7.40;1.00;9.50;102652.00;;;;5011038;28;20455;-74
2021/12/18 10:51:33;;;;;;;21.03;18.83;;;7.40;1.00;9.60;102650.00;;;;5009413;28;20549;-74
2021/12/18 10:54:06;;;;;;;19.37;17.47;;;7.40;1.00;9.60;102634.00;;;;5012344;28;20801;-73
2021/12/18 10:56:38;;;;;;;19.33;16.90;;;7.40;1.00;9.70;102633.00;;;;5013760;28;20506;-76
2021/12/18 10:59:21;;;;;;;19.57;17.47;;;7.40;1.00;9.90;102658.00;;;;5008411;28;20473;-75
2021/12/18 11:01:54;;;;;;;17.20;15.40;;;7.50;1.00;9.90;102655.00;;;;5010339;28;20458;-75
2021/12/18 11:04:27;;;;;;;17.17;14.90;;;7.50;1.00;9.90;102657.00;;;;5004143;28;20469;-74
2021/12/18 11:06:57;;;;;;;16.60;14.90;;;7.50;1.00;9.90;102619.00;;;;5009798;28;20481;-75
2021/12/18 11:09:33;;;;;;;17.10;15.30;;;7.60;1.00;10.00;102640.00;;;;5010305;28;20453;-77
2021/12/18 11:14:48;;;;;;;16.50;14.90;;;7.90;1.00;10.10;102641.00;;;;5015556;28;21029;-74
2021/12/18 11:17:17;;;;;;;17.80;16.00;;;8.10;1.00;10.20;102628.00;;;;5018593;28;20469;-75
2021/12/18 11:19:46;;;;;;;16.03;14.40;;;8.20;1.00;10.20;102621.00;;;;5010544;28;20461;-75
2021/12/18 11:22:17;;;;;;;16.27;14.33;;;8.10;1.00;10.30;102608.00;;;;5013742;28;20518;-75
2021/12/18 11:24:59;;;;;;;14.43;12.90;;;8.30;1.00;10.40;102611.00;;;;5013840;28;20465;-76
2021/12/18 11:27:28;;;;;;;12.77;11.30;;;8.40;1.00;10.40;102574.00;;;;5012088;28;20466;-74
2021/12/18 11:30:02;;;;;;;13.90;12.50;;;8.30;1.00;10.40;102578.00;;;;5014427;28;20468;-75
2021/12/18 11:32:33;;;;;;;13.47;12.07;;;8.30;1.00;10.50;102604.00;;;;5018460;28;20481;-76
2021/12/18 11:35:05;;;;;;;14.60;12.37;;;8.40;1.00;10.50;102603.00;;;;5017358;28;20481;-76
2021/12/18 11:37:41;;;;;;;13.13;11.83;;;8.50;1.00;10.60;102611.00;;;;5009894;28;20473;-74
2021/12/18 11:40:16;;;;;;;13.30;11.40;;;8.40;1.00;10.60;102591.00;;;;5009980;28;20556;-75
2021/12/18 11:42:44;;;;;;;11.73;10.50;;;8.40;1.00;10.70;102610.00;;;;5014224;28;20942;-74